Gypsum, KS (67448)

4:07 PM CDT on August 27, 2016 (GMT -0500)
Southeast of Saline School | | Change Station

Elev 1401 ft 38.71 °N, 97.51 °W | Updated 12 days ago

Clear
Clear
85 °F
Feels Like 88 °F
N
8
Wind Variable Wind from SE
Gusts mph

Today
High -- | Low -- °F
--% Chance of Precip.
Yesterday
High -- | Low -- °F
Precip. -- in
Pressure 29.95 in
Visibility 10.0 miles
Clouds Clear
Heat Index 88 °F
Dew Point 70 °F
Humidity 61%
Rainfall in
Snow Depth Not available.
6:54 AM 8:06 PM
Waning Crescent, 21% visible
METAR KSLN 272053Z AUTO 08004KT 10SM CLR 31/20 A2999 RMK AO2 SLP141 T03060200 58015
Pressure 29.95 in
Visibility 10.0 miles
Clouds Clear
Heat Index 88 °F
Dew Point 70 °F
Humidity 61%
Rainfall in
Snow Depth Not available.
6:54 AM 8:06 PM
Waning Crescent, 21% visible
METAR KSLN 272053Z AUTO 08004KT 10SM CLR 31/20 A2999 RMK AO2 SLP141 T03060200 58015

10-Day Weather Forecast

Almanac

Astronomy

Aug. 27, 2016 Rise Set
Actual Time
Civil Twilight
Nautical Twilight
Astronomical Twilight
Moon
Length of Visible Light
Length of Day
Tomorrow will be .
, % of the Moon is Illuminated

Today's Extremes

State Highs State Lows

Community

WunderPhotos

Upload Photos

1,935,446 photos uploaded!

WunderBlog® & News

Nearby

Air Quality

  Air Quality AQ Index Pollutant
Not available.

Snow Depth

Station Depth Elevation

Earthquake Activity

City Distance Mag. Time & Date
Minimum magnitude displayed is 2.5.

Coastal Water Temperatures

Place Temperature

Stations

Nearby Weather Stations

Station Location Temp. Windchill Dew Point Humidity Wind Precip. Elev Updated Type
                   

Watches & Warnings

There are currently no watches in effect.